RJFT(METAR)
07/17 15:00
METAR RJFT 170600Z 04005KT 7000 FEW008 SCT080 BKN120 27/25 Q1011 RMK
1ST008 3AC080 5AC120 A2987=
戻る
トップページへ戻る
IMOC Co,.Ltd.